createdAt,value
2023-01-08T00:01:51.213Z,10
2023-01-08T00:03:58.010Z,9.9
2023-01-08T00:06:01.829Z,9.9
2023-01-08T00:08:05.675Z,9.9
2023-01-08T00:10:09.559Z,9.9
2023-01-08T00:12:13.452Z,9.8
2023-01-08T00:14:17.316Z,9.9
2023-01-08T00:16:21.315Z,9.8
2023-01-08T00:18:27.863Z,9.8
2023-01-08T00:22:35.613Z,9.8
2023-01-08T00:24:39.491Z,9.9
2023-01-08T00:28:47.305Z,9.9
2023-01-08T00:30:51.215Z,10
2023-01-08T00:32:57.783Z,10.1
2023-01-08T00:35:01.654Z,10.1
2023-01-08T00:37:05.513Z,10.2
2023-01-08T00:38:08.868Z,10.2
2023-01-08T00:40:12.727Z,10.2
2023-01-08T00:42:16.609Z,10.1
2023-01-08T00:44:20.497Z,10
2023-01-08T00:46:27.165Z,10.1
2023-01-08T00:48:31.035Z,10
2023-01-08T00:52:38.808Z,10.1
2023-01-08T00:54:42.668Z,10.1
2023-01-08T00:56:46.545Z,10
2023-01-08T00:58:50.432Z,10
2023-01-08T01:00:57.175Z,10.1
2023-01-08T01:03:01.004Z,10.1
2023-01-08T01:05:04.923Z,10.1
2023-01-08T01:07:08.744Z,10
2023-01-08T01:09:12.639Z,10.1
2023-01-08T01:11:16.510Z,10
2023-01-08T01:15:27.087Z,10
2023-01-08T01:17:30.970Z,9.8
2023-01-08T01:19:34.828Z,9.6
2023-01-08T01:21:38.713Z,9.5
2023-01-08T01:23:42.622Z,9.5
2023-01-08T01:25:46.475Z,9.5
2023-01-08T01:27:50.341Z,9.6
2023-01-08T01:29:57.035Z,9.7
2023-01-08T01:32:00.919Z,9.7
2023-01-08T01:34:04.791Z,9.7
2023-01-08T01:35:08.139Z,9.6
2023-01-08T01:37:12.003Z,9.6
2023-01-08T01:39:15.877Z,9.5
2023-01-08T01:41:19.747Z,9.4
2023-01-08T01:43:26.431Z,9.4
2023-01-08T01:45:30.399Z,9.5
2023-01-08T01:47:34.203Z,9.5
2023-01-08T01:49:38.062Z,9.6
2023-01-08T01:51:41.894Z,9.6
2023-01-08T01:53:45.770Z,9.7
2023-01-08T01:55:49.669Z,9.7
2023-01-08T01:57:56.333Z,9.8
2023-01-08T02:00:00.237Z,9.8
2023-01-08T02:02:04.172Z,9.8
2023-01-08T02:04:08.056Z,9.7
2023-01-08T02:08:15.686Z,9.9
2023-01-08T02:10:19.563Z,9.8
2023-01-08T02:12:26.223Z,9.8
2023-01-08T02:14:30.106Z,9.7
2023-01-08T02:16:34.045Z,9.5
2023-01-08T02:18:37.843Z,9.4
2023-01-08T02:20:41.680Z,9.2
2023-01-08T02:22:45.556Z,9
2023-01-08T02:24:49.414Z,8.7
2023-01-08T02:26:56.107Z,8.7
2023-01-08T02:28:59.987Z,8.7
2023-01-08T02:31:05.393Z,8.6
2023-01-08T02:32:08.631Z,8.6
2023-01-08T02:34:12.502Z,8.6
2023-01-08T02:36:16.374Z,8.5
2023-01-08T02:38:20.239Z,8.4
2023-01-08T02:40:26.873Z,8.3
2023-01-08T02:42:30.782Z,8.3
2023-01-08T02:46:38.446Z,8.3
2023-01-08T02:48:42.302Z,8.3
2023-01-08T02:50:46.145Z,8.2
2023-01-08T02:52:49.988Z,8.3
2023-01-08T02:54:56.680Z,8.2
2023-01-08T02:57:00.525Z,8.2
2023-01-08T02:59:04.345Z,8.2
2023-01-08T03:01:08.407Z,8.2
2023-01-08T03:03:12.077Z,8.2
2023-01-08T03:05:15.903Z,8.2
2023-01-08T03:07:19.767Z,8.3
2023-01-08T03:09:26.415Z,8.3
2023-01-08T03:15:37.956Z,8.3
2023-01-08T03:17:41.810Z,8.2
2023-01-08T03:21:49.521Z,8.2
2023-01-08T03:23:56.249Z,8.2
2023-01-08T03:26:00.049Z,8.2
2023-01-08T03:28:03.887Z,8.2
2023-01-08T03:30:31.624Z,8.2
2023-01-08T03:32:35.395Z,8.2
2023-01-08T03:34:39.257Z,8.1
2023-01-08T03:36:45.910Z,8.2
2023-01-08T03:38:49.777Z,8.2
2023-01-08T03:40:53.617Z,8.2
2023-01-08T03:42:57.493Z,8.2
2023-01-08T03:45:01.340Z,8.2
2023-01-08T03:47:05.189Z,8.3
2023-01-08T03:49:09.015Z,8.4
2023-01-08T03:51:15.662Z,8.5
2023-01-08T03:53:19.526Z,8.5
2023-01-08T03:55:23.343Z,8.5
2023-01-08T03:57:27.183Z,8.6
2023-01-08T03:59:31.037Z,8.6
2023-01-08T04:01:35.020Z,8.6
2023-01-08T04:03:38.721Z,8.6
2023-01-08T04:05:45.374Z,8.6
2023-01-08T04:07:49.218Z,8.6
2023-01-08T04:09:53.059Z,8.6
2023-01-08T04:11:56.899Z,8.6
2023-01-08T04:14:00.776Z,8.6
2023-01-08T04:16:04.705Z,8.5
2023-01-08T04:18:08.445Z,8.5
2023-01-08T04:20:15.078Z,8.4
2023-01-08T04:22:18.929Z,8.4
2023-01-08T04:24:22.807Z,8.4
2023-01-08T04:27:29.989Z,8.4
2023-01-08T04:29:33.806Z,8.3
2023-01-08T04:31:37.655Z,8.3
2023-01-08T04:41:59.843Z,8.1
2023-01-08T04:44:03.667Z,8.1
2023-01-08T04:46:07.661Z,8
2023-01-08T04:48:14.201Z,8
2023-01-08T04:50:18.056Z,8
2023-01-08T04:52:21.876Z,7.9
2023-01-08T04:54:25.719Z,7.9
2023-01-08T04:56:29.535Z,7.9
2023-01-08T04:58:33.396Z,7.9
2023-01-08T05:00:37.246Z,7.9
2023-01-08T05:02:44.147Z,7.9
2023-01-08T05:04:47.730Z,7.9
2023-01-08T05:06:51.583Z,7.9
2023-01-08T05:08:55.420Z,7.9
2023-01-08T05:10:59.256Z,7.9
2023-01-08T05:13:03.094Z,7.9
2023-01-08T05:15:06.924Z,7.9
2023-01-08T05:17:13.543Z,7.9
2023-01-08T05:21:21.218Z,7.9
2023-01-08T05:24:28.357Z,7.9
2023-01-08T05:26:32.184Z,7.9
2023-01-08T05:28:36.033Z,7.9
2023-01-08T05:38:58.035Z,7.9
2023-01-08T05:41:01.886Z,8
2023-01-08T05:43:05.684Z,8
2023-01-08T05:45:12.360Z,8
2023-01-08T05:47:16.197Z,7.9
2023-01-08T05:53:27.713Z,7.9
2023-01-08T05:55:31.538Z,7.8
2023-01-08T05:59:42.028Z,7.8
2023-01-08T06:03:49.719Z,7.9
2023-01-08T06:05:53.511Z,7.9
2023-01-08T06:07:57.390Z,7.9
2023-01-08T06:12:05.048Z,7.9
2023-01-08T06:14:11.668Z,8
2023-01-08T06:16:15.600Z,7.9
2023-01-08T06:18:19.357Z,7.9
2023-01-08T06:19:22.740Z,7.9
2023-01-08T06:21:26.526Z,7.8
2023-01-08T06:23:30.366Z,7.8
2023-01-08T06:25:34.195Z,7.8
2023-01-08T06:27:40.865Z,7.8
2023-01-08T06:29:44.644Z,7.8
2023-01-08T06:31:48.494Z,7.7
2023-01-08T06:33:52.336Z,7.7
2023-01-08T06:35:56.165Z,7.7
2023-01-08T06:38:00.039Z,7.7
2023-01-08T06:40:03.815Z,7.5
2023-01-08T06:42:10.467Z,7.5
2023-01-08T06:44:14.300Z,7.5
2023-01-08T06:46:18.193Z,7.4
2023-01-08T06:48:21.938Z,7.4
2023-01-08T06:50:25.768Z,7.4
2023-01-08T06:52:29.608Z,7.3
2023-01-08T06:54:33.428Z,7.3
2023-01-08T06:56:52.972Z,7.2
2023-01-08T07:00:47.679Z,7.2
2023-01-08T07:04:55.317Z,7
2023-01-08T07:06:59.120Z,7
2023-01-08T07:09:02.923Z,7
2023-01-08T07:11:09.564Z,7.1
2023-01-08T07:13:13.375Z,7
2023-01-08T07:15:17.173Z,7
2023-01-08T07:17:35.177Z,6.9
2023-01-08T07:19:39.000Z,6.9
2023-01-08T07:21:42.766Z,6.9
2023-01-08T07:23:49.415Z,6.8
2023-01-08T07:25:53.197Z,6.7
2023-01-08T07:27:56.948Z,6.8
2023-01-08T07:30:00.744Z,6.8
2023-01-08T07:32:04.537Z,6.8
2023-01-08T07:34:08.360Z,6.7
2023-01-08T07:36:12.170Z,6.7
2023-01-08T07:38:18.756Z,6.6
2023-01-08T07:40:22.550Z,6.7
2023-01-08T07:42:26.390Z,6.6
2023-01-08T07:44:30.158Z,6.7
2023-01-08T07:46:34.051Z,6.7
2023-01-08T07:48:37.761Z,6.7
2023-01-08T07:50:41.598Z,6.7
2023-01-08T07:54:51.945Z,6.7
2023-01-08T08:03:07.140Z,6.6
2023-01-08T08:05:10.905Z,6.6
2023-01-08T08:07:17.497Z,6.8
2023-01-08T08:12:28.388Z,6.7
2023-01-08T08:14:32.207Z,6.7
2023-01-08T08:16:35.935Z,6.8
2023-01-08T08:18:39.751Z,6.8
2023-01-08T08:20:46.349Z,6.8
2023-01-08T08:22:50.143Z,6.8
2023-01-08T08:37:20.976Z,7.2
2023-01-08T08:41:28.703Z,7.5
2023-01-08T08:43:32.452Z,7.5
2023-01-08T08:45:36.248Z,7.4
2023-01-08T08:47:40.116Z,7.3
2023-01-08T08:49:46.778Z,7.3
2023-01-08T08:51:50.549Z,7.3
2023-01-08T08:53:54.329Z,7.3
2023-01-08T08:55:58.121Z,7.3
2023-01-08T08:58:01.897Z,7.3
2023-01-08T09:00:05.687Z,7.6
2023-01-08T09:02:09.650Z,8.7
2023-01-08T09:04:16.366Z,10.1
2023-01-08T09:06:20.162Z,10.1
2023-01-08T09:08:23.972Z,9.6
2023-01-08T09:09:27.271Z,9
2023-01-08T09:11:31.091Z,8.9
2023-01-08T09:13:34.863Z,8.9
2023-01-08T09:15:38.681Z,8.4
2023-01-08T09:17:45.284Z,8.7
2023-01-08T09:19:49.117Z,9.4
2023-01-08T09:21:52.891Z,8.6
2023-01-08T09:23:56.714Z,8.8
2023-01-08T09:26:00.548Z,9.6
2023-01-08T09:30:08.191Z,7.9
2023-01-08T09:32:14.808Z,7.5
2023-01-08T09:34:18.632Z,7.5
2023-01-08T09:36:22.425Z,8.3
2023-01-08T09:38:27.717Z,10.9
2023-01-08T09:42:33.873Z,11.7
2023-01-08T09:44:37.737Z,12.6
2023-01-08T09:46:44.440Z,12.8
2023-01-08T09:48:48.193Z,13
2023-01-08T09:50:52.014Z,13
2023-01-08T09:52:55.859Z,13.1
2023-01-08T09:54:59.670Z,13.4
2023-01-08T09:57:03.523Z,13.7
2023-01-08T09:59:07.381Z,13.4
2023-01-08T10:01:14.140Z,14.4
2023-01-08T10:03:17.852Z,14.4
2023-01-08T10:05:21.720Z,13.4
2023-01-08T10:06:25.032Z,13.8
2023-01-08T10:08:28.885Z,13.6
2023-01-08T10:10:32.745Z,13.5
2023-01-08T10:12:36.615Z,12.9
2023-01-08T10:14:43.277Z,13.7
2023-01-08T10:16:47.152Z,13.7
2023-01-08T10:18:51.005Z,12.2
2023-01-08T10:20:54.882Z,11.9
2023-01-08T10:22:58.750Z,11.9
2023-01-08T10:25:02.665Z,11.3
2023-01-08T10:27:06.529Z,10.5
2023-01-08T10:29:13.215Z,10.5
2023-01-08T10:37:28.709Z,12.3
2023-01-08T10:39:32.599Z,12.8
2023-01-08T10:43:43.189Z,12.4
2023-01-08T10:54:02.596Z,12.4
2023-01-08T10:56:06.485Z,13.1
2023-01-08T10:58:13.176Z,11.9
2023-01-08T11:00:17.065Z,11.2
2023-01-08T11:02:21.031Z,10.6
2023-01-08T11:04:50.556Z,9.8
2023-01-08T11:06:54.435Z,9.8
2023-01-08T11:08:58.304Z,10
2023-01-08T11:11:05.001Z,9.9
2023-01-08T11:13:08.896Z,9.9
2023-01-08T11:15:12.762Z,10.1
2023-01-08T11:17:16.664Z,9.9
2023-01-08T11:19:20.538Z,10
2023-01-08T11:21:24.423Z,10
2023-01-08T11:23:28.319Z,10.1
2023-01-08T11:25:34.991Z,10
2023-01-08T11:27:38.875Z,9.9
2023-01-08T11:29:42.761Z,9.8
2023-01-08T11:35:54.396Z,9.8
2023-01-08T11:37:58.305Z,9.9
2023-01-08T11:42:08.878Z,10.2
2023-01-08T11:48:20.500Z,10
2023-01-08T11:52:28.286Z,10.1
2023-01-08T11:54:34.957Z,10
2023-01-08T11:56:38.806Z,10
2023-01-08T11:58:42.712Z,10.1
2023-01-08T11:59:46.021Z,10
2023-01-08T12:01:50.174Z,10
2023-01-08T12:03:53.775Z,10.1
2023-01-08T12:05:57.657Z,10.3
2023-01-08T12:08:04.325Z,10.2
2023-01-08T12:10:08.220Z,10.1
2023-01-08T12:12:14.560Z,9.8
2023-01-08T12:14:15.969Z,10.1
2023-01-08T12:16:19.889Z,10.3
2023-01-08T12:18:23.675Z,10.4
2023-01-08T12:20:27.555Z,10.5
2023-01-08T12:22:34.272Z,10.2
2023-01-08T12:24:38.153Z,10.3
2023-01-08T12:26:42.022Z,10.3
2023-01-08T12:28:45.901Z,10.3
2023-01-08T12:30:49.788Z,10.2
2023-01-08T12:34:57.547Z,10.2
2023-01-08T12:37:04.223Z,10.2
2023-01-08T12:39:08.130Z,10.2
2023-01-08T12:41:12.001Z,10.2
2023-01-08T12:43:15.859Z,10.3
2023-01-08T12:45:19.745Z,10.2
2023-01-08T12:51:34.215Z,10.2
2023-01-08T12:53:38.079Z,10.2
2023-01-08T12:55:41.974Z,10.2
2023-01-08T12:56:45.284Z,10.1
2023-01-08T12:58:49.188Z,10.1
2023-01-08T13:00:53.117Z,10
2023-01-08T13:05:03.627Z,9.8
2023-01-08T13:09:11.395Z,9.9
2023-01-08T13:11:15.278Z,9.9
2023-01-08T13:13:19.138Z,9.9
2023-01-08T13:19:33.576Z,10
2023-01-08T13:21:37.458Z,9.9
2023-01-08T13:23:41.290Z,10
2023-01-08T13:25:45.165Z,10
2023-01-08T13:27:49.050Z,10
2023-01-08T13:29:52.930Z,9.9
2023-01-08T13:34:03.486Z,9.8
2023-01-08T13:36:07.352Z,9.8
2023-01-08T13:38:11.240Z,9.9
2023-01-08T13:40:15.132Z,9.8
2023-01-08T13:42:18.987Z,9.7
2023-01-08T13:44:22.844Z,9.8
2023-01-08T13:46:26.730Z,9.9
2023-01-08T13:48:33.416Z,9.8
2023-01-08T13:50:37.299Z,9.8
2023-01-08T13:52:41.141Z,9.8
2023-01-08T13:53:44.487Z,9.9
2023-01-08T13:55:48.357Z,10
2023-01-08T13:57:52.247Z,9.9
2023-01-08T13:59:56.130Z,9.8
2023-01-08T14:02:02.905Z,9.7
2023-01-08T14:04:06.645Z,9.6
2023-01-08T14:06:10.549Z,9.6
2023-01-08T14:10:18.332Z,9.6
2023-01-08T14:12:22.141Z,9.6
2023-01-08T14:14:26.020Z,9.6
2023-01-08T14:16:32.741Z,9.5
2023-01-08T14:18:36.605Z,9.5
2023-01-08T14:20:40.461Z,9.5
2023-01-08T14:22:44.316Z,9.5
2023-01-08T14:24:49.706Z,9.4
2023-01-08T14:26:53.516Z,9.4
2023-01-08T14:28:57.373Z,9.4
2023-01-08T14:31:04.044Z,9.4
2023-01-08T14:35:11.774Z,9.4
2023-01-08T14:37:15.655Z,9.4
2023-01-08T14:39:19.481Z,9.3
2023-01-08T14:41:23.367Z,9.2
2023-01-08T14:43:27.217Z,9.2
2023-01-08T14:45:33.950Z,9.1
2023-01-08T14:47:37.775Z,9.1
2023-01-08T14:49:41.643Z,9
2023-01-08T14:52:11.211Z,9
2023-01-08T14:54:15.102Z,9
2023-01-08T14:56:18.951Z,9.1
2023-01-08T15:06:41.041Z,8.8
2023-01-08T15:08:44.873Z,8.8
2023-01-08T15:10:48.734Z,8.8
2023-01-08T15:14:59.251Z,8.8
2023-01-08T15:17:03.131Z,8.8
2023-01-08T15:19:06.962Z,8.7
2023-01-08T15:21:10.786Z,8.6
2023-01-08T15:23:14.649Z,8.7
2023-01-08T15:25:18.505Z,8.6
2023-01-08T15:27:25.139Z,8.5
2023-01-08T15:29:28.972Z,8.5
2023-01-08T15:31:32.954Z,8.5
2023-01-08T15:33:36.662Z,8.5
2023-01-08T15:35:40.516Z,8.6
2023-01-08T15:37:44.356Z,8.5
2023-01-08T15:39:48.168Z,8.4
2023-01-08T15:41:54.939Z,8.4
2023-01-08T15:43:58.768Z,8.3
2023-01-08T15:46:02.654Z,8.3
2023-01-08T15:49:09.750Z,8.3
2023-01-08T15:53:17.430Z,8.2
2023-01-08T15:57:27.900Z,8.1
2023-01-08T16:01:35.747Z,8
2023-01-08T16:05:43.235Z,8
2023-01-08T16:07:47.052Z,8
2023-01-08T16:09:53.670Z,8
2023-01-08T16:11:57.511Z,8
2023-01-08T16:14:01.330Z,8.1
2023-01-08T16:16:05.181Z,8.1
2023-01-08T16:18:08.992Z,8
2023-01-08T16:20:12.948Z,8
2023-01-08T16:22:16.751Z,8
2023-01-08T16:24:23.384Z,8
2023-01-08T16:26:27.238Z,8
2023-01-08T16:28:31.081Z,8
2023-01-08T16:30:34.920Z,7.9
2023-01-08T16:32:38.732Z,7.9
2023-01-08T16:34:42.570Z,7.9
2023-01-08T16:36:46.397Z,7.8
2023-01-08T16:38:53.050Z,7.8
2023-01-08T16:40:56.869Z,7.8
2023-01-08T16:43:00.713Z,7.7
2023-01-08T16:44:04.036Z,7.7
2023-01-08T16:46:07.891Z,7.8
2023-01-08T16:48:11.721Z,7.7
2023-01-08T16:50:15.564Z,7.7
2023-01-08T16:52:22.197Z,7.7
2023-01-08T16:54:26.008Z,7.7
2023-01-08T16:56:29.847Z,7.6
2023-01-08T16:58:33.661Z,7.5
2023-01-08T17:00:37.570Z,7.5
2023-01-08T17:02:41.361Z,7.4
2023-01-08T17:04:45.268Z,7.4
2023-01-08T17:06:51.884Z,7.4
2023-01-08T17:08:55.751Z,7.4
2023-01-08T17:10:59.580Z,7.4
2023-01-08T17:13:03.372Z,7.4
2023-01-08T17:15:07.212Z,7.4
2023-01-08T17:17:11.039Z,7.4
2023-01-08T17:19:14.839Z,7.4
2023-01-08T17:21:21.480Z,7.4
2023-01-08T17:23:25.294Z,7.4
2023-01-08T17:25:29.124Z,7.4
2023-01-08T17:27:32.925Z,7.4
2023-01-08T17:29:36.753Z,7.4
2023-01-08T17:31:40.720Z,7.5
2023-01-08T17:33:44.375Z,7.5
2023-01-08T17:37:54.805Z,7.5
2023-01-08T17:39:58.643Z,7.6
2023-01-08T17:41:01.935Z,7.6
2023-01-08T17:43:05.734Z,7.6
2023-01-08T17:47:13.406Z,7.6
2023-01-08T17:49:19.989Z,7.6
2023-01-08T17:51:23.997Z,7.6
2023-01-08T17:53:27.847Z,7.6
2023-01-08T17:55:31.617Z,7.7
2023-01-08T17:57:35.432Z,7.7
2023-01-08T17:59:39.233Z,7.7
2023-01-08T18:01:43.112Z,7.8
2023-01-08T18:03:49.726Z,7.9
2023-01-08T18:05:53.509Z,7.9
2023-01-08T18:07:57.338Z,7.9
2023-01-08T18:10:01.199Z,7.9
2023-01-08T18:12:04.963Z,7.9
2023-01-08T18:14:08.758Z,7.9
2023-01-08T18:16:12.690Z,7.8
2023-01-08T18:20:23.027Z,7.8
2023-01-08T18:22:26.864Z,7.7
2023-01-08T18:24:30.693Z,7.7
2023-01-08T18:26:34.487Z,7.7
2023-01-08T18:28:38.331Z,7.7
2023-01-08T18:32:48.768Z,7.7
2023-01-08T18:34:52.626Z,7.7
2023-01-08T18:36:56.452Z,7.7
2023-01-08T18:43:33.774Z,7.6
2023-01-08T18:45:40.452Z,7.6
2023-01-08T18:47:44.244Z,7.5
2023-01-08T18:49:48.055Z,7.6
2023-01-08T18:51:51.900Z,7.5
2023-01-08T18:53:55.724Z,7.5
2023-01-08T18:55:59.592Z,7.6
2023-01-08T18:58:03.360Z,7.5
2023-01-08T19:00:10.008Z,7.5
2023-01-08T19:02:13.945Z,7.5
2023-01-08T19:04:17.649Z,7.5
2023-01-08T19:08:25.325Z,7.6
2023-01-08T19:12:32.963Z,7.4
2023-01-08T19:14:39.612Z,7.3
2023-01-08T19:16:43.499Z,7.3
2023-01-08T19:18:47.275Z,7.3
2023-01-08T19:20:51.087Z,7.3
2023-01-08T19:22:54.928Z,7.3
2023-01-08T19:24:58.736Z,7.3
2023-01-08T19:27:02.576Z,7.3
2023-01-08T19:29:09.211Z,7.2
2023-01-08T19:31:13.128Z,7.2
2023-01-08T19:36:23.994Z,7.2
2023-01-08T19:38:27.793Z,7.2
2023-01-08T19:42:38.256Z,7.2
2023-01-08T19:46:45.905Z,7.2
2023-01-08T19:48:49.734Z,7.2
2023-01-08T19:50:53.535Z,7.2
2023-01-08T19:55:01.188Z,7.1
2023-01-08T19:57:07.781Z,7.2
2023-01-08T19:59:11.617Z,7.2
2023-01-08T20:01:15.577Z,7.2
2023-01-08T20:03:19.240Z,7.1
2023-01-08T20:05:23.055Z,7.2
2023-01-08T20:07:26.889Z,7.2
2023-01-08T20:09:30.796Z,7.2
2023-01-08T20:11:37.520Z,7.2
2023-01-08T20:13:41.336Z,7.2
2023-01-08T20:15:45.156Z,7.1
2023-01-08T20:17:48.985Z,7.2
2023-01-08T20:19:52.770Z,7.2
2023-01-08T20:21:58.114Z,7.3
2023-01-08T20:24:01.886Z,7.3
2023-01-08T20:26:08.522Z,7.4
2023-01-08T20:28:12.355Z,7.4
2023-01-08T20:30:16.168Z,7.4
2023-01-08T20:31:19.503Z,7.3
2023-01-08T20:33:23.291Z,7.4
2023-01-08T20:35:27.125Z,7.4
2023-01-08T20:37:30.929Z,7.4
2023-01-08T20:39:37.543Z,7.3
2023-01-08T20:41:46.612Z,7.3
2023-01-08T20:43:45.196Z,7.3
2023-01-08T20:47:52.823Z,7.4
2023-01-08T20:54:07.095Z,7.3
2023-01-08T20:56:10.926Z,7.2
2023-01-08T20:58:14.742Z,7.2
2023-01-08T21:00:18.563Z,7.1
2023-01-08T21:04:26.241Z,7.2
2023-01-08T21:08:36.615Z,7.2
2023-01-08T21:10:40.444Z,7.3
2023-01-08T21:12:44.250Z,7.3
2023-01-08T21:14:48.071Z,7.3
2023-01-08T21:18:55.736Z,7.3
2023-01-08T21:20:59.517Z,7.3
2023-01-08T21:23:06.155Z,7.3
2023-01-08T21:25:09.977Z,7.3
2023-01-08T21:27:13.805Z,7.3
2023-01-08T21:28:17.208Z,7.3
2023-01-08T21:30:21.044Z,7.4
2023-01-08T21:32:24.857Z,7.4
2023-01-08T21:36:35.296Z,7.5
2023-01-08T21:38:39.117Z,7.5
2023-01-08T21:42:46.738Z,7.5
2023-01-08T21:44:50.595Z,7.5
2023-01-08T21:46:54.418Z,7.5
2023-01-08T21:48:58.225Z,7.5
2023-01-08T21:51:04.884Z,7.5
2023-01-08T21:53:08.702Z,7.6
2023-01-08T21:55:12.511Z,7.6
2023-01-08T21:57:16.349Z,7.6
2023-01-08T21:59:20.167Z,7.6
2023-01-08T22:01:24.115Z,7.6
2023-01-08T22:03:27.825Z,7.5
2023-01-08T22:05:34.507Z,7.6
2023-01-08T22:07:32.198Z,7.5
2023-01-08T22:09:35.978Z,7.7
2023-01-08T22:11:39.787Z,7.6
2023-01-08T22:13:43.615Z,7.8
2023-01-08T22:15:47.446Z,7.8
2023-01-08T22:17:51.294Z,7.7
2023-01-08T22:19:58.003Z,7.7
2023-01-08T22:22:01.763Z,7.7
2023-01-08T22:24:05.575Z,7.7
2023-01-08T22:28:39.012Z,7.7
2023-01-08T22:30:42.834Z,7.7
2023-01-08T22:32:49.493Z,7.8
2023-01-08T22:34:53.348Z,7.8
2023-01-08T22:36:57.169Z,7.8
2023-01-08T22:39:01.009Z,7.9
2023-01-08T22:41:04.833Z,7.8
2023-01-08T22:43:08.668Z,7.8
2023-01-08T22:45:12.490Z,7.9
2023-01-08T22:47:19.151Z,7.9
2023-01-08T22:49:23.136Z,7.9
2023-01-08T22:51:27.544Z,7.9
2023-01-08T22:53:30.646Z,8
2023-01-08T22:55:34.487Z,8
2023-01-08T22:57:38.345Z,8
2023-01-08T22:59:42.153Z,8
2023-01-08T23:01:48.812Z,8
2023-01-08T23:03:52.744Z,8
2023-01-08T23:05:56.471Z,8.1
2023-01-08T23:08:00.333Z,8.1
2023-01-08T23:10:04.161Z,8.1
2023-01-08T23:12:08.054Z,8
2023-01-08T23:14:11.852Z,8
2023-01-08T23:16:18.518Z,7.9
2023-01-08T23:18:22.325Z,7.9
2023-01-08T23:20:26.143Z,7.8
2023-01-08T23:21:29.471Z,7.7
2023-01-08T23:23:33.347Z,7.7
2023-01-08T23:25:37.165Z,7.6
2023-01-08T23:27:41.006Z,7.5
2023-01-08T23:29:47.660Z,7.5
2023-01-08T23:31:51.536Z,7.5
2023-01-08T23:33:55.336Z,7.4
2023-01-08T23:35:59.181Z,7.4
2023-01-08T23:38:03.014Z,7.5
2023-01-08T23:40:06.833Z,7.4
2023-01-08T23:42:10.666Z,7.4
2023-01-08T23:44:17.347Z,7.3
2023-01-08T23:46:21.196Z,7.2
2023-01-08T23:48:24.993Z,7.2
2023-01-08T23:52:32.663Z,7.2
2023-01-08T23:54:36.467Z,7.2
2023-01-08T23:56:40.297Z,7.1
2023-01-08T23:58:46.962Z,7.1
